sensor_id;sensor_type;location;lat;lon;timestamp;temperature;humidity
13998;DHT22;7074;51.508;7.018;2022-10-22T00:02:13;14.50;99.90
13998;DHT22;7074;51.508;7.018;2022-10-22T00:04:45;14.60;99.90
13998;DHT22;7074;51.508;7.018;2022-10-22T00:07:13;14.60;99.90
13998;DHT22;7074;51.508;7.018;2022-10-22T00:09:41;14.60;99.90
13998;DHT22;7074;51.508;7.018;2022-10-22T00:12:09;14.60;99.90
13998;DHT22;7074;51.508;7.018;2022-10-22T00:14:38;14.60;99.90
13998;DHT22;7074;51.508;7.018;2022-10-22T00:17:05;14.60;99.90
13998;DHT22;7074;51.508;7.018;2022-10-22T00:19:33;14.60;99.90
13998;DHT22;7074;51.508;7.018;2022-10-22T00:22:00;14.60;99.90
13998;DHT22;7074;51.508;7.018;2022-10-22T00:24:30;14.60;99.90
13998;DHT22;7074;51.508;7.018;2022-10-22T00:26:58;14.60;99.90
13998;DHT22;7074;51.508;7.018;2022-10-22T00:29:25;14.60;99.90
13998;DHT22;7074;51.508;7.018;2022-10-22T00:31:54;14.60;99.90
13998;DHT22;7074;51.508;7.018;2022-10-22T00:34:22;14.60;99.90
13998;DHT22;7074;51.508;7.018;2022-10-22T00:36:50;14.50;99.90
13998;DHT22;7074;51.508;7.018;2022-10-22T00:39:20;14.50;99.90
13998;DHT22;7074;51.508;7.018;2022-10-22T00:41:48;14.50;99.90
13998;DHT22;7074;51.508;7.018;2022-10-22T00:47:23;14.50;99.90
13998;DHT22;7074;51.508;7.018;2022-10-22T00:49:52;14.50;99.90
13998;DHT22;7074;51.508;7.018;2022-10-22T00:52:20;14.40;99.90
13998;DHT22;7074;51.508;7.018;2022-10-22T00:54:49;14.40;99.90
13998;DHT22;7074;51.508;7.018;2022-10-22T00:57:17;14.40;99.90
13998;DHT22;7074;51.508;7.018;2022-10-22T00:59:46;14.40;99.90
13998;DHT22;7074;51.508;7.018;2022-10-22T01:02:14;14.30;99.90
13998;DHT22;7074;51.508;7.018;2022-10-22T01:04:42;14.30;99.90
13998;DHT22;7074;51.508;7.018;2022-10-22T01:07:15;14.30;99.90
13998;DHT22;7074;51.508;7.018;2022-10-22T01:09:48;14.30;99.90
13998;DHT22;7074;51.508;7.018;2022-10-22T01:12:21;14.30;99.90
13998;DHT22;7074;51.508;7.018;2022-10-22T01:15:01;14.40;99.90
13998;DHT22;7074;51.508;7.018;2022-10-22T01:17:35;14.40;99.90
13998;DHT22;7074;51.508;7.018;2022-10-22T01:20:14;14.40;99.90
13998;DHT22;7074;51.508;7.018;2022-10-22T01:22:54;14.30;99.90
13998;DHT22;7074;51.508;7.018;2022-10-22T01:25:30;14.30;99.90
13998;DHT22;7074;51.508;7.018;2022-10-22T01:28:06;14.30;99.90
13998;DHT22;7074;51.508;7.018;2022-10-22T01:30:40;14.30;99.90
13998;DHT22;7074;51.508;7.018;2022-10-22T01:33:10;14.30;99.90
13998;DHT22;7074;51.508;7.018;2022-10-22T01:35:41;14.30;99.90
13998;DHT22;7074;51.508;7.018;2022-10-22T01:38:13;14.30;99.90
13998;DHT22;7074;51.508;7.018;2022-10-22T01:40:42;14.20;99.90
13998;DHT22;7074;51.508;7.018;2022-10-22T01:43:10;14.10;99.90
13998;DHT22;7074;51.508;7.018;2022-10-22T01:45:41;14.20;99.90
13998;DHT22;7074;51.508;7.018;2022-10-22T01:48:24;14.20;99.90
13998;DHT22;7074;51.508;7.018;2022-10-22T01:51:12;14.20;99.90
13998;DHT22;7074;51.508;7.018;2022-10-22T01:53:49;14.20;99.90
13998;DHT22;7074;51.508;7.018;2022-10-22T01:56:30;14.20;99.90
13998;DHT22;7074;51.508;7.018;2022-10-22T01:59:05;14.20;99.90
13998;DHT22;7074;51.508;7.018;2022-10-22T02:01:41;14.10;99.90
13998;DHT22;7074;51.508;7.018;2022-10-22T02:04:14;14.10;99.90
13998;DHT22;7074;51.508;7.018;2022-10-22T02:06:45;14.10;99.90
13998;DHT22;7074;51.508;7.018;2022-10-22T02:09:15;14.10;99.90
13998;DHT22;7074;51.508;7.018;2022-10-22T02:11:44;14.10;99.90
13998;DHT22;7074;51.508;7.018;2022-10-22T02:14:13;14.10;99.90
13998;DHT22;7074;51.508;7.018;2022-10-22T02:16:45;14.10;99.90
13998;DHT22;7074;51.508;7.018;2022-10-22T02:19:17;14.10;99.90
13998;DHT22;7074;51.508;7.018;2022-10-22T02:21:46;14.10;99.90
13998;DHT22;7074;51.508;7.018;2022-10-22T02:24:13;14.00;99.90
13998;DHT22;7074;51.508;7.018;2022-10-22T02:26:45;14.00;99.90
13998;DHT22;7074;51.508;7.018;2022-10-22T02:29:18;14.00;99.90
13998;DHT22;7074;51.508;7.018;2022-10-22T02:31:50;14.00;99.90
13998;DHT22;7074;51.508;7.018;2022-10-22T02:34:22;14.00;99.90
13998;DHT22;7074;51.508;7.018;2022-10-22T02:36:51;13.90;99.90
13998;DHT22;7074;51.508;7.018;2022-10-22T02:39:20;13.90;99.90
13998;DHT22;7074;51.508;7.018;2022-10-22T02:41:47;13.90;99.90
13998;DHT22;7074;51.508;7.018;2022-10-22T02:44:15;13.90;99.90
13998;DHT22;7074;51.508;7.018;2022-10-22T02:46:46;13.90;99.90
13998;DHT22;7074;51.508;7.018;2022-10-22T02:49:16;13.90;99.90
13998;DHT22;7074;51.508;7.018;2022-10-22T02:51:43;13.90;99.90
13998;DHT22;7074;51.508;7.018;2022-10-22T02:54:10;13.90;99.90
13998;DHT22;7074;51.508;7.018;2022-10-22T02:56:37;13.90;99.90
13998;DHT22;7074;51.508;7.018;2022-10-22T02:59:05;13.90;99.90
13998;DHT22;7074;51.508;7.018;2022-10-22T03:01:32;13.80;99.90
13998;DHT22;7074;51.508;7.018;2022-10-22T03:04:00;13.80;99.90
13998;DHT22;7074;51.508;7.018;2022-10-22T03:06:28;13.70;99.90
13998;DHT22;7074;51.508;7.018;2022-10-22T03:08:56;13.80;99.90
13998;DHT22;7074;51.508;7.018;2022-10-22T03:11:23;13.70;99.90
13998;DHT22;7074;51.508;7.018;2022-10-22T03:13:50;13.80;99.90
13998;DHT22;7074;51.508;7.018;2022-10-22T03:16:17;13.70;99.90
13998;DHT22;7074;51.508;7.018;2022-10-22T03:18:44;13.70;99.90
13998;DHT22;7074;51.508;7.018;2022-10-22T03:21:19;13.70;99.90
13998;DHT22;7074;51.508;7.018;2022-10-22T03:23:49;13.60;99.90
13998;DHT22;7074;51.508;7.018;2022-10-22T03:26:16;13.60;99.90
13998;DHT22;7074;51.508;7.018;2022-10-22T03:28:44;13.60;99.90
13998;DHT22;7074;51.508;7.018;2022-10-22T03:31:13;13.50;99.90
13998;DHT22;7074;51.508;7.018;2022-10-22T03:33:40;13.60;99.90
13998;DHT22;7074;51.508;7.018;2022-10-22T03:36:08;13.50;99.90
13998;DHT22;7074;51.508;7.018;2022-10-22T03:38:36;13.50;99.90
13998;DHT22;7074;51.508;7.018;2022-10-22T03:41:05;13.40;99.90
13998;DHT22;7074;51.508;7.018;2022-10-22T03:43:34;13.40;99.90
13998;DHT22;7074;51.508;7.018;2022-10-22T03:46:01;13.40;99.90
13998;DHT22;7074;51.508;7.018;2022-10-22T03:48:28;13.40;99.90
13998;DHT22;7074;51.508;7.018;2022-10-22T03:50:55;13.30;99.90
13998;DHT22;7074;51.508;7.018;2022-10-22T03:53:22;13.30;99.90
13998;DHT22;7074;51.508;7.018;2022-10-22T03:55:50;13.30;99.90
13998;DHT22;7074;51.508;7.018;2022-10-22T03:58:18;13.30;99.90
13998;DHT22;7074;51.508;7.018;2022-10-22T04:00:46;13.30;99.90
13998;DHT22;7074;51.508;7.018;2022-10-22T04:03:13;13.30;99.90
13998;DHT22;7074;51.508;7.018;2022-10-22T04:05:40;13.20;99.90
13998;DHT22;7074;51.508;7.018;2022-10-22T04:08:08;13.20;99.90
13998;DHT22;7074;51.508;7.018;2022-10-22T04:10:35;13.20;99.90
13998;DHT22;7074;51.508;7.018;2022-10-22T04:13:02;13.20;99.90
13998;DHT22;7074;51.508;7.018;2022-10-22T04:15:30;13.20;99.90
13998;DHT22;7074;51.508;7.018;2022-10-22T04:17:58;13.20;99.90
13998;DHT22;7074;51.508;7.018;2022-10-22T04:20:25;13.20;99.90
13998;DHT22;7074;51.508;7.018;2022-10-22T04:22:52;13.20;99.90
13998;DHT22;7074;51.508;7.018;2022-10-22T04:25:19;13.20;99.90
13998;DHT22;7074;51.508;7.018;2022-10-22T04:27:46;13.20;99.90
13998;DHT22;7074;51.508;7.018;2022-10-22T05:40:53;14.20;99.90
13998;DHT22;7074;51.508;7.018;2022-10-22T05:44:02;14.30;99.90
13998;DHT22;7074;51.508;7.018;2022-10-22T05:51:15;14.40;99.90
13998;DHT22;7074;51.508;7.018;2022-10-22T05:54:05;14.40;99.90
13998;DHT22;7074;51.508;7.018;2022-10-22T05:56:34;14.50;99.90
13998;DHT22;7074;51.508;7.018;2022-10-22T05:59:02;14.50;99.90
13998;DHT22;7074;51.508;7.018;2022-10-22T06:01:31;14.60;99.90
13998;DHT22;7074;51.508;7.018;2022-10-22T06:04:01;14.70;99.90
13998;DHT22;7074;51.508;7.018;2022-10-22T06:06:32;14.70;99.90
13998;DHT22;7074;51.508;7.018;2022-10-22T06:09:02;14.70;99.90
13998;DHT22;7074;51.508;7.018;2022-10-22T06:11:30;14.70;99.90
13998;DHT22;7074;51.508;7.018;2022-10-22T06:13:59;14.70;99.90
13998;DHT22;7074;51.508;7.018;2022-10-22T06:16:28;14.80;99.90
13998;DHT22;7074;51.508;7.018;2022-10-22T06:18:57;14.70;99.90
13998;DHT22;7074;51.508;7.018;2022-10-22T06:21:24;14.80;99.90
13998;DHT22;7074;51.508;7.018;2022-10-22T06:23:51;14.80;99.90
13998;DHT22;7074;51.508;7.018;2022-10-22T06:26:18;14.90;99.90
13998;DHT22;7074;51.508;7.018;2022-10-22T06:28:46;15.00;99.90
13998;DHT22;7074;51.508;7.018;2022-10-22T06:31:14;14.90;99.90
13998;DHT22;7074;51.508;7.018;2022-10-22T06:33:42;15.00;99.90
13998;DHT22;7074;51.508;7.018;2022-10-22T06:36:11;15.00;99.90
13998;DHT22;7074;51.508;7.018;2022-10-22T06:38:39;15.10;99.90
13998;DHT22;7074;51.508;7.018;2022-10-22T06:41:09;15.10;99.90
13998;DHT22;7074;51.508;7.018;2022-10-22T06:43:36;15.20;99.90
13998;DHT22;7074;51.508;7.018;2022-10-22T06:46:05;15.20;99.90
13998;DHT22;7074;51.508;7.018;2022-10-22T06:48:40;15.30;99.90
13998;DHT22;7074;51.508;7.018;2022-10-22T06:51:10;15.40;99.90
13998;DHT22;7074;51.508;7.018;2022-10-22T06:53:38;15.40;99.90
13998;DHT22;7074;51.508;7.018;2022-10-22T06:56:07;15.50;99.90
13998;DHT22;7074;51.508;7.018;2022-10-22T06:58:35;15.50;99.90
13998;DHT22;7074;51.508;7.018;2022-10-22T07:01:03;15.50;99.90
13998;DHT22;7074;51.508;7.018;2022-10-22T07:03:31;15.50;99.90
13998;DHT22;7074;51.508;7.018;2022-10-22T07:06:01;15.60;99.90
13998;DHT22;7074;51.508;7.018;2022-10-22T07:08:29;15.60;99.90
13998;DHT22;7074;51.508;7.018;2022-10-22T07:11:04;15.70;99.90
13998;DHT22;7074;51.508;7.018;2022-10-22T07:13:32;15.70;99.90
13998;DHT22;7074;51.508;7.018;2022-10-22T07:16:00;15.70;99.90
13998;DHT22;7074;51.508;7.018;2022-10-22T07:18:27;15.70;99.90
13998;DHT22;7074;51.508;7.018;2022-10-22T07:20:55;15.80;99.90
13998;DHT22;7074;51.508;7.018;2022-10-22T07:23:24;15.80;99.90
13998;DHT22;7074;51.508;7.018;2022-10-22T07:25:51;15.90;99.90
13998;DHT22;7074;51.508;7.018;2022-10-22T07:28:18;16.00;99.90
13998;DHT22;7074;51.508;7.018;2022-10-22T07:30:46;16.00;99.90
13998;DHT22;7074;51.508;7.018;2022-10-22T07:33:14;16.10;99.90
13998;DHT22;7074;51.508;7.018;2022-10-22T07:35:42;16.20;99.90
13998;DHT22;7074;51.508;7.018;2022-10-22T07:38:10;16.20;99.90
13998;DHT22;7074;51.508;7.018;2022-10-22T07:40:38;16.40;99.90
13998;DHT22;7074;51.508;7.018;2022-10-22T07:43:06;16.40;99.90
13998;DHT22;7074;51.508;7.018;2022-10-22T07:45:33;16.50;99.90
13998;DHT22;7074;51.508;7.018;2022-10-22T07:48:00;16.50;99.90
13998;DHT22;7074;51.508;7.018;2022-10-22T07:50:28;16.60;99.90
13998;DHT22;7074;51.508;7.018;2022-10-22T07:52:55;16.60;99.90
13998;DHT22;7074;51.508;7.018;2022-10-22T07:55:23;16.60;99.90
13998;DHT22;7074;51.508;7.018;2022-10-22T07:57:51;16.60;99.90
13998;DHT22;7074;51.508;7.018;2022-10-22T08:00:19;16.70;99.90
13998;DHT22;7074;51.508;7.018;2022-10-22T08:02:49;16.70;99.90
13998;DHT22;7074;51.508;7.018;2022-10-22T08:05:16;16.70;99.90
13998;DHT22;7074;51.508;7.018;2022-10-22T08:07:44;16.80;99.90
13998;DHT22;7074;51.508;7.018;2022-10-22T08:10:12;16.80;99.90
13998;DHT22;7074;51.508;7.018;2022-10-22T08:12:39;16.90;99.90
13998;DHT22;7074;51.508;7.018;2022-10-22T08:15:09;16.90;99.90
13998;DHT22;7074;51.508;7.018;2022-10-22T08:17:36;16.90;99.90
13998;DHT22;7074;51.508;7.018;2022-10-22T08:20:04;16.90;99.90
13998;DHT22;7074;51.508;7.018;2022-10-22T08:22:31;17.00;99.90
13998;DHT22;7074;51.508;7.018;2022-10-22T08:24:59;17.10;99.90
13998;DHT22;7074;51.508;7.018;2022-10-22T08:27:26;17.10;99.90
13998;DHT22;7074;51.508;7.018;2022-10-22T08:29:53;17.10;99.90
13998;DHT22;7074;51.508;7.018;2022-10-22T08:32:22;17.20;99.90
13998;DHT22;7074;51.508;7.018;2022-10-22T08:34:49;17.30;99.90
13998;DHT22;7074;51.508;7.018;2022-10-22T08:37:16;17.30;99.90
13998;DHT22;7074;51.508;7.018;2022-10-22T08:39:44;17.30;99.90
13998;DHT22;7074;51.508;7.018;2022-10-22T08:42:38;17.40;99.90
13998;DHT22;7074;51.508;7.018;2022-10-22T08:45:12;17.40;99.90
13998;DHT22;7074;51.508;7.018;2022-10-22T08:48:01;17.40;99.90
13998;DHT22;7074;51.508;7.018;2022-10-22T08:50:35;17.40;99.90
13998;DHT22;7074;51.508;7.018;2022-10-22T08:53:05;17.40;99.90
13998;DHT22;7074;51.508;7.018;2022-10-22T08:55:35;17.40;99.90
13998;DHT22;7074;51.508;7.018;2022-10-22T08:58:10;17.40;99.90
13998;DHT22;7074;51.508;7.018;2022-10-22T09:00:45;17.40;99.90
13998;DHT22;7074;51.508;7.018;2022-10-22T09:03:39;17.50;99.90
13998;DHT22;7074;51.508;7.018;2022-10-22T09:06:11;17.60;99.90
13998;DHT22;7074;51.508;7.018;2022-10-22T09:08:41;17.50;99.90
13998;DHT22;7074;51.508;7.018;2022-10-22T09:11:18;17.60;99.90
13998;DHT22;7074;51.508;7.018;2022-10-22T09:13:47;17.60;99.90
13998;DHT22;7074;51.508;7.018;2022-10-22T09:16:17;17.70;99.90
13998;DHT22;7074;51.508;7.018;2022-10-22T09:18:54;17.80;99.90
13998;DHT22;7074;51.508;7.018;2022-10-22T09:21:32;17.90;99.90
13998;DHT22;7074;51.508;7.018;2022-10-22T09:24:07;17.90;99.90
13998;DHT22;7074;51.508;7.018;2022-10-22T09:26:37;17.90;99.90
13998;DHT22;7074;51.508;7.018;2022-10-22T09:29:23;18.00;99.90
13998;DHT22;7074;51.508;7.018;2022-10-22T09:31:55;18.00;99.90
13998;DHT22;7074;51.508;7.018;2022-10-22T09:34:23;17.90;99.90
13998;DHT22;7074;51.508;7.018;2022-10-22T09:36:57;18.00;99.90
13998;DHT22;7074;51.508;7.018;2022-10-22T09:39:26;18.10;99.90
13998;DHT22;7074;51.508;7.018;2022-10-22T09:41:53;18.00;99.90
13998;DHT22;7074;51.508;7.018;2022-10-22T09:44:21;18.00;99.90
13998;DHT22;7074;51.508;7.018;2022-10-22T09:46:48;18.00;99.90
13998;DHT22;7074;51.508;7.018;2022-10-22T09:49:17;18.10;99.90
13998;DHT22;7074;51.508;7.018;2022-10-22T09:51:53;18.10;99.90
13998;DHT22;7074;51.508;7.018;2022-10-22T09:54:22;18.10;99.90
13998;DHT22;7074;51.508;7.018;2022-10-22T09:56:52;18.10;99.90
13998;DHT22;7074;51.508;7.018;2022-10-22T09:59:28;18.10;99.90
13998;DHT22;7074;51.508;7.018;2022-10-22T10:01:58;18.10;99.90
13998;DHT22;7074;51.508;7.018;2022-10-22T10:04:25;18.10;99.90
13998;DHT22;7074;51.508;7.018;2022-10-22T10:06:57;18.20;99.90
13998;DHT22;7074;51.508;7.018;2022-10-22T10:09:25;18.20;99.90
13998;DHT22;7074;51.508;7.018;2022-10-22T10:12:00;18.20;99.90
13998;DHT22;7074;51.508;7.018;2022-10-22T10:14:34;18.20;99.90
13998;DHT22;7074;51.508;7.018;2022-10-22T10:17:09;18.20;99.90
13998;DHT22;7074;51.508;7.018;2022-10-22T10:19:53;18.20;99.90
13998;DHT22;7074;51.508;7.018;2022-10-22T10:22:40;18.20;99.90
13998;DHT22;7074;51.508;7.018;2022-10-22T10:25:22;18.20;99.90
13998;DHT22;7074;51.508;7.018;2022-10-22T10:28:03;18.20;99.90
13998;DHT22;7074;51.508;7.018;2022-10-22T10:30:37;18.30;99.90
13998;DHT22;7074;51.508;7.018;2022-10-22T10:33:18;18.20;99.90
13998;DHT22;7074;51.508;7.018;2022-10-22T10:35:53;18.30;99.90
13998;DHT22;7074;51.508;7.018;2022-10-22T10:38:38;18.30;99.90
13998;DHT22;7074;51.508;7.018;2022-10-22T10:41:15;18.30;99.90
13998;DHT22;7074;51.508;7.018;2022-10-22T10:43:54;18.50;99.90
13998;DHT22;7074;51.508;7.018;2022-10-22T10:46:32;18.40;99.90
13998;DHT22;7074;51.508;7.018;2022-10-22T10:49:08;18.50;99.90
13998;DHT22;7074;51.508;7.018;2022-10-22T10:51:46;18.60;99.90
13998;DHT22;7074;51.508;7.018;2022-10-22T10:54:27;18.70;99.90
13998;DHT22;7074;51.508;7.018;2022-10-22T10:57:02;18.80;99.90
13998;DHT22;7074;51.508;7.018;2022-10-22T10:59:44;18.80;99.90
13998;DHT22;7074;51.508;7.018;2022-10-22T11:02:46;18.90;99.90
13998;DHT22;7074;51.508;7.018;2022-10-22T11:05:27;18.90;99.90
13998;DHT22;7074;51.508;7.018;2022-10-22T11:07:59;18.80;99.90
13998;DHT22;7074;51.508;7.018;2022-10-22T11:10:32;18.80;99.90
13998;DHT22;7074;51.508;7.018;2022-10-22T11:13:05;18.80;99.90
13998;DHT22;7074;51.508;7.018;2022-10-22T11:15:36;18.90;99.90
13998;DHT22;7074;51.508;7.018;2022-10-22T11:18:11;18.90;99.90
13998;DHT22;7074;51.508;7.018;2022-10-22T11:20:49;18.90;99.90
13998;DHT22;7074;51.508;7.018;2022-10-22T11:23:22;19.00;99.90
13998;DHT22;7074;51.508;7.018;2022-10-22T11:25:53;19.00;99.90
13998;DHT22;7074;51.508;7.018;2022-10-22T11:28:24;19.10;99.90
13998;DHT22;7074;51.508;7.018;2022-10-22T11:30:57;19.10;99.90
13998;DHT22;7074;51.508;7.018;2022-10-22T11:33:31;19.10;99.90
13998;DHT22;7074;51.508;7.018;2022-10-22T11:36:03;19.20;99.90
13998;DHT22;7074;51.508;7.018;2022-10-22T11:38:31;19.20;99.90
13998;DHT22;7074;51.508;7.018;2022-10-22T11:41:11;19.20;99.90
13998;DHT22;7074;51.508;7.018;2022-10-22T11:43:56;19.20;99.90
13998;DHT22;7074;51.508;7.018;2022-10-22T11:46:29;19.20;99.90
13998;DHT22;7074;51.508;7.018;2022-10-22T11:49:03;19.30;99.90
13998;DHT22;7074;51.508;7.018;2022-10-22T11:51:34;19.30;99.90
13998;DHT22;7074;51.508;7.018;2022-10-22T11:54:19;19.40;99.90
13998;DHT22;7074;51.508;7.018;2022-10-22T11:56:57;19.40;99.90
13998;DHT22;7074;51.508;7.018;2022-10-22T11:59:48;19.30;99.90
13998;DHT22;7074;51.508;7.018;2022-10-22T12:02:38;19.20;99.90
13998;DHT22;7074;51.508;7.018;2022-10-22T12:05:33;19.30;99.90
13998;DHT22;7074;51.508;7.018;2022-10-22T12:08:13;19.30;99.90
13998;DHT22;7074;51.508;7.018;2022-10-22T12:10:59;19.20;99.90
13998;DHT22;7074;51.508;7.018;2022-10-22T12:13:33;19.10;99.90
13998;DHT22;7074;51.508;7.018;2022-10-22T12:16:17;19.10;99.90
13998;DHT22;7074;51.508;7.018;2022-10-22T12:18:45;19.00;99.90
13998;DHT22;7074;51.508;7.018;2022-10-22T12:21:14;19.00;99.90
13998;DHT22;7074;51.508;7.018;2022-10-22T12:23:43;19.00;99.90
13998;DHT22;7074;51.508;7.018;2022-10-22T12:26:22;18.90;99.90
13998;DHT22;7074;51.508;7.018;2022-10-22T12:28:56;18.90;99.90
13998;DHT22;7074;51.508;7.018;2022-10-22T12:31:24;19.00;99.90
13998;DHT22;7074;51.508;7.018;2022-10-22T12:33:57;19.00;99.90
13998;DHT22;7074;51.508;7.018;2022-10-22T12:36:25;18.90;99.90
13998;DHT22;7074;51.508;7.018;2022-10-22T12:38:53;19.00;99.90
13998;DHT22;7074;51.508;7.018;2022-10-22T12:41:21;19.10;99.90
13998;DHT22;7074;51.508;7.018;2022-10-22T12:43:48;19.10;99.90
13998;DHT22;7074;51.508;7.018;2022-10-22T12:46:17;19.20;99.90
13998;DHT22;7074;51.508;7.018;2022-10-22T12:48:44;19.20;99.90
13998;DHT22;7074;51.508;7.018;2022-10-22T12:51:16;19.30;99.90
13998;DHT22;7074;51.508;7.018;2022-10-22T12:53:46;19.30;99.90
13998;DHT22;7074;51.508;7.018;2022-10-22T12:56:16;19.30;99.90
13998;DHT22;7074;51.508;7.018;2022-10-22T12:58:50;19.40;99.90
13998;DHT22;7074;51.508;7.018;2022-10-22T13:01:20;19.50;99.90
13998;DHT22;7074;51.508;7.018;2022-10-22T13:03:50;19.60;99.90
13998;DHT22;7074;51.508;7.018;2022-10-22T13:06:24;19.50;99.90
13998;DHT22;7074;51.508;7.018;2022-10-22T13:09:02;19.50;99.90
13998;DHT22;7074;51.508;7.018;2022-10-22T13:11:36;19.50;99.90
13998;DHT22;7074;51.508;7.018;2022-10-22T13:14:05;19.60;99.90
13998;DHT22;7074;51.508;7.018;2022-10-22T13:17:02;19.50;99.90
13998;DHT22;7074;51.508;7.018;2022-10-22T13:19:37;19.50;99.90
13998;DHT22;7074;51.508;7.018;2022-10-22T13:22:26;19.50;99.90
13998;DHT22;7074;51.508;7.018;2022-10-22T13:24:53;19.50;99.90
13998;DHT22;7074;51.508;7.018;2022-10-22T13:27:23;19.50;99.90
13998;DHT22;7074;51.508;7.018;2022-10-22T13:29:51;19.50;99.90
13998;DHT22;7074;51.508;7.018;2022-10-22T13:32:27;19.60;99.90
13998;DHT22;7074;51.508;7.018;2022-10-22T13:34:59;19.50;99.90
13998;DHT22;7074;51.508;7.018;2022-10-22T13:37:28;19.50;99.90
13998;DHT22;7074;51.508;7.018;2022-10-22T13:39:56;19.50;99.90
13998;DHT22;7074;51.508;7.018;2022-10-22T13:42:24;19.50;99.90
13998;DHT22;7074;51.508;7.018;2022-10-22T13:44:51;19.50;99.90
13998;DHT22;7074;51.508;7.018;2022-10-22T13:47:27;19.50;99.90
13998;DHT22;7074;51.508;7.018;2022-10-22T13:49:58;19.40;99.90
13998;DHT22;7074;51.508;7.018;2022-10-22T13:52:37;19.40;99.90
13998;DHT22;7074;51.508;7.018;2022-10-22T13:55:13;19.50;99.90
13998;DHT22;7074;51.508;7.018;2022-10-22T13:57:40;19.40;99.90
13998;DHT22;7074;51.508;7.018;2022-10-22T14:00:11;19.50;99.90
13998;DHT22;7074;51.508;7.018;2022-10-22T14:02:40;19.50;99.90
13998;DHT22;7074;51.508;7.018;2022-10-22T14:05:08;19.50;99.90
13998;DHT22;7074;51.508;7.018;2022-10-22T14:07:36;19.50;99.90
13998;DHT22;7074;51.508;7.018;2022-10-22T14:10:13;19.50;99.90
13998;DHT22;7074;51.508;7.018;2022-10-22T14:12:41;19.50;99.90
13998;DHT22;7074;51.508;7.018;2022-10-22T14:15:10;19.60;99.90
13998;DHT22;7074;51.508;7.018;2022-10-22T14:17:37;19.60;99.90
13998;DHT22;7074;51.508;7.018;2022-10-22T14:20:13;19.60;99.90
13998;DHT22;7074;51.508;7.018;2022-10-22T14:22:45;19.60;99.90
13998;DHT22;7074;51.508;7.018;2022-10-22T14:25:14;19.50;99.90
13998;DHT22;7074;51.508;7.018;2022-10-22T14:27:45;19.50;99.90
13998;DHT22;7074;51.508;7.018;2022-10-22T14:30:13;19.50;99.90
13998;DHT22;7074;51.508;7.018;2022-10-22T14:32:41;19.50;99.90
13998;DHT22;7074;51.508;7.018;2022-10-22T14:35:12;19.50;99.90
13998;DHT22;7074;51.508;7.018;2022-10-22T14:37:40;19.40;99.90
13998;DHT22;7074;51.508;7.018;2022-10-22T14:40:08;19.40;99.90
13998;DHT22;7074;51.508;7.018;2022-10-22T14:42:39;19.40;99.90
13998;DHT22;7074;51.508;7.018;2022-10-22T14:45:13;19.30;99.90
13998;DHT22;7074;51.508;7.018;2022-10-22T14:47:41;19.40;99.90
13998;DHT22;7074;51.508;7.018;2022-10-22T14:50:10;19.40;99.90
13998;DHT22;7074;51.508;7.018;2022-10-22T14:52:38;19.40;99.90
13998;DHT22;7074;51.508;7.018;2022-10-22T14:55:07;19.30;99.90
13998;DHT22;7074;51.508;7.018;2022-10-22T14:57:34;19.30;99.90
13998;DHT22;7074;51.508;7.018;2022-10-22T15:00:05;19.40;99.90
13998;DHT22;7074;51.508;7.018;2022-10-22T15:02:33;19.50;99.90
13998;DHT22;7074;51.508;7.018;2022-10-22T15:05:00;19.40;99.90
13998;DHT22;7074;51.508;7.018;2022-10-22T15:07:29;19.40;99.90
13998;DHT22;7074;51.508;7.018;2022-10-22T15:09:56;19.40;99.90
13998;DHT22;7074;51.508;7.018;2022-10-22T15:12:23;19.40;99.90
13998;DHT22;7074;51.508;7.018;2022-10-22T15:14:57;19.40;99.90
13998;DHT22;7074;51.508;7.018;2022-10-22T15:17:25;19.30;99.90
13998;DHT22;7074;51.508;7.018;2022-10-22T15:19:52;19.20;99.90
13998;DHT22;7074;51.508;7.018;2022-10-22T15:22:21;19.30;99.90
13998;DHT22;7074;51.508;7.018;2022-10-22T15:24:50;19.20;99.90
13998;DHT22;7074;51.508;7.018;2022-10-22T15:27:18;19.20;99.90
13998;DHT22;7074;51.508;7.018;2022-10-22T15:29:45;19.20;99.90
13998;DHT22;7074;51.508;7.018;2022-10-22T15:32:12;19.10;99.90
13998;DHT22;7074;51.508;7.018;2022-10-22T15:34:40;19.10;99.90
13998;DHT22;7074;51.508;7.018;2022-10-22T15:37:08;19.00;99.90
13998;DHT22;7074;51.508;7.018;2022-10-22T15:39:38;19.00;99.90
13998;DHT22;7074;51.508;7.018;2022-10-22T15:42:08;18.90;99.90
13998;DHT22;7074;51.508;7.018;2022-10-22T15:44:37;19.00;99.90
13998;DHT22;7074;51.508;7.018;2022-10-22T15:47:06;19.00;99.90
13998;DHT22;7074;51.508;7.018;2022-10-22T15:49:35;19.00;99.90
13998;DHT22;7074;51.508;7.018;2022-10-22T15:52:03;19.00;99.90
13998;DHT22;7074;51.508;7.018;2022-10-22T15:54:31;18.80;99.90
13998;DHT22;7074;51.508;7.018;2022-10-22T15:57:00;18.90;99.90
13998;DHT22;7074;51.508;7.018;2022-10-22T15:59:30;18.80;99.90
13998;DHT22;7074;51.508;7.018;2022-10-22T16:01:57;18.80;99.90
13998;DHT22;7074;51.508;7.018;2022-10-22T16:04:24;18.70;99.90
